Time;durP1;ratioP1;P1;durP2;ratioP2;P2;SDS_P1;SDS_P2;PMS_P1;PMS_P2;Temp;Humidity;BMP_temperature;BMP_pressure;BME280_temperature;BME280_humidity;BME280_pressure;Samples;Min_cycle;Max_cycle;Signal;HPM_P1;HPM_P2
2022/07/31 08:06:50;;;;;;;;;;;;;;;18.65;62.14;100465.06;5887748;23;2138;-94
2022/07/31 08:45:46;;;;;;;;;;;;;;;18.73;61.96;100458.22;4903601;29;1896;-93
2022/07/31 08:48:15;;;;;;;;;;;;;;;18.73;61.83;100455.47;4901544;29;1383;-94
2022/07/31 08:50:41;;;;;;;;;;;;;;;18.73;61.69;100448.13;4889349;29;1548;-93
2022/07/31 08:53:07;;;;;;;;;;;;;;;18.74;61.83;100454.44;4879952;29;1988;-95
2022/07/31 08:55:36;;;;;;;;;;;;;;;18.74;61.80;100452.53;4904082;29;1192;-95
2022/07/31 08:58:03;;;;;;;;;;;;;;;18.73;61.71;100450.88;4889203;29;1790;-94
2022/07/31 09:00:29;;;;;;;;;;;;;;;18.74;61.85;100454.44;4892653;29;1317;-93
2022/07/31 09:02:56;;;;;;;;;;;;;;;18.74;62.14;100452.53;4893820;29;1481;-94
2022/07/31 09:05:23;;;;;;;;;;;;;;;18.74;61.92;100454.44;4892680;29;1775;-94
2022/07/31 09:07:50;;;;;;;;;;;;;;;18.75;62.04;100451.41;4893227;29;1637;-94
2022/07/31 09:10:16;;;;;;;;;;;;;;;18.75;61.88;100456.06;4894480;29;1167;-94
2022/07/31 09:12:43;;;;;;;;;;;;;;;18.75;62.18;100448.69;4873527;29;1249;-94
2022/07/31 09:15:09;;;;;;;;;;;;;;;18.76;61.97;100453.03;4893304;29;1960;-94
2022/07/31 09:17:36;;;;;;;;;;;;;;;18.76;61.89;100444.84;4893710;29;1287;-93
2022/07/31 09:28:09;;;;;;;;;;;;;;;18.75;62.34;100445.16;5034086;23;3638;-96
2022/07/31 09:44:22;;;;;;;;;;;;;;;18.82;62.24;100448.38;5053249;23;3739;-93
2022/07/31 09:52:25;;;;;;;;;;;;;;;18.83;62.23;100441.84;5149202;23;1925;-94
2022/07/31 10:29:54;;;;;;;;;;;;;;;18.93;62.27;100430.91;4992969;28;1369;-95
2022/07/31 10:32:21;;;;;;;;;;;;;;;18.94;62.31;100427.09;4972292;28;1332;-94
2022/07/31 10:34:49;;;;;;;;;;;;;;;18.94;62.03;100438.00;4965683;28;1910;-93
2022/07/31 10:45:22;;;;;;;;;;;;;;;18.96;62.31;100429.53;5818583;23;1896;-93
2022/07/31 10:47:52;;;;;;;;;;;;;;;18.97;62.11;100432.00;5257933;23;3669;-94
2022/07/31 10:50:18;;;;;;;;;;;;;;;18.98;62.42;100432.81;5029424;23;3703;-94
2022/07/31 10:52:44;;;;;;;;;;;;;;;18.98;62.24;100427.34;4970723;28;1446;-93
2022/07/31 10:55:11;;;;;;;;;;;;;;;18.99;61.98;100427.06;4969436;28;1903;-93
2022/07/31 10:57:40;;;;;;;;;;;;;;;19.00;62.47;100423.25;4973397;28;1267;-94
2022/07/31 11:00:06;;;;;;;;;;;;;;;19.00;62.42;100425.97;4975772;28;1292;-93
2022/07/31 11:02:33;;;;;;;;;;;;;;;19.01;62.26;100429.53;4975701;28;1163;-95
2022/07/31 11:05:05;;;;;;;;;;;;;;;19.02;62.43;100437.41;4977707;28;1384;-95
2022/07/31 11:07:42;;;;;;;;;;;;;;;19.03;62.16;100430.88;5081755;23;3666;-96
2022/07/31 11:15:29;;;;;;;;;;;;;;;19.04;62.49;100427.03;4965181;28;1891;-93
2022/07/31 11:23:17;;;;;;;;;;;;;;;19.07;62.36;100414.75;5299096;23;2075;-94
2022/07/31 11:31:01;;;;;;;;;;;;;;;19.09;62.32;100407.13;5332357;23;3612;-94
2022/07/31 11:33:28;;;;;;;;;;;;;;;19.09;62.17;100401.66;5001519;23;3664;-94
2022/07/31 11:35:54;;;;;;;;;;;;;;;19.11;62.48;100395.91;5490262;23;3704;-93
2022/07/31 11:41:16;;;;;;;;;;;;;;;19.12;62.43;100398.38;4980077;28;1162;-94
2022/07/31 11:43:50;;;;;;;;;;;;;;;19.12;62.28;100394.78;4999058;28;1196;-96
2022/07/31 11:46:21;;;;;;;;;;;;;;;19.13;62.41;100399.97;4977673;28;1179;-94
2022/07/31 11:49:18;;;;;;;;;;;;;;;19.14;62.63;100398.06;4994643;28;1271;-95
2022/07/31 11:52:17;;;;;;;;;;;;;;;19.15;62.55;100391.50;5347158;23;3745;-95
2022/07/31 11:54:44;;;;;;;;;;;;;;;19.16;62.68;100393.97;4976472;28;1927;-94
2022/07/31 11:59:53;;;;;;;;;;;;;;;19.17;62.56;100398.31;4973739;28;1439;-94
2022/07/31 12:02:46;;;;;;;;;;;;;;;19.19;62.58;100412.50;5102354;23;3702;-93
2022/07/31 12:05:13;;;;;;;;;;;;;;;19.20;62.67;100396.94;4944067;29;1267;-93
2022/07/31 12:07:39;;;;;;;;;;;;;;;19.20;62.48;100405.13;4945289;29;1426;-95
2022/07/31 12:18:29;;;;;;;;;;;;;;;19.23;62.72;100380.00;4901453;29;1209;-94
2022/07/31 12:20:56;;;;;;;;;;;;;;;19.23;62.59;100377.28;4895722;28;1176;-95
2022/07/31 12:23:22;;;;;;;;;;;;;;;19.24;62.86;100378.94;4898432;29;1955;-94
2022/07/31 12:25:49;;;;;;;;;;;;;;;19.24;62.96;100371.53;4912146;29;1441;-93
2022/07/31 12:28:15;;;;;;;;;;;;;;;19.25;62.69;100383.28;4896823;29;1373;-93
2022/07/31 12:30:42;;;;;;;;;;;;;;;19.27;62.89;100379.16;4894253;29;1558;-93
2022/07/31 12:33:09;;;;;;;;;;;;;;;19.28;62.76;100374.53;4909917;29;5072;-95
2022/07/31 12:41:35;;;;;;;;;;;;;;;19.29;63.01;100366.06;4906187;29;1868;-94
2022/07/31 12:44:03;;;;;;;;;;;;;;;19.30;62.82;100366.88;4902912;29;1183;-93
2022/07/31 12:46:30;;;;;;;;;;;;;;;19.29;62.89;100357.88;4894540;29;1324;-94
2022/07/31 12:49:07;;;;;;;;;;;;;;;19.32;62.72;100358.38;4898982;29;1356;-94
2022/07/31 12:51:40;;;;;;;;;;;;;;;19.32;63.05;100355.66;4902188;29;1242;-94
2022/07/31 12:54:09;;;;;;;;;;;;;;;19.33;62.93;100360.03;4888430;29;1953;-94
2022/07/31 12:56:37;;;;;;;;;;;;;;;19.34;62.80;100361.66;4886609;29;1193;-94
2022/07/31 12:59:14;;;;;;;;;;;;;;;19.34;63.17;100354.28;4908207;29;1482;-94
2022/07/31 13:01:40;;;;;;;;;;;;;;;19.34;63.18;100350.72;4904741;29;1318;-95
2022/07/31 13:04:08;;;;;;;;;;;;;;;19.35;62.82;100350.44;5011158;23;3876;-93
2022/07/31 13:06:36;;;;;;;;;;;;;;;19.37;63.02;100359.16;4965944;29;1485;-93
2022/07/31 13:09:02;;;;;;;;;;;;;;;19.37;63.21;100353.72;4966356;29;1166;-93
2022/07/31 13:11:32;;;;;;;;;;;;;;;19.39;62.72;100356.16;4968151;29;1175;-94
2022/07/31 13:14:03;;;;;;;;;;;;;;;19.40;63.08;100355.88;4961282;28;1918;-94
2022/07/31 13:16:30;;;;;;;;;;;;;;;19.40;63.01;100350.41;4962636;28;1436;-93
2022/07/31 13:18:57;;;;;;;;;;;;;;;19.41;63.15;100356.69;4967004;29;1179;-94
2022/07/31 13:21:25;;;;;;;;;;;;;;;19.42;63.24;100352.88;4969686;29;1421;-93
2022/07/31 13:23:52;;;;;;;;;;;;;;;19.44;63.07;100356.13;4967757;28;1805;-94
2022/07/31 13:26:21;;;;;;;;;;;;;;;19.44;62.94;100345.19;4976269;28;1326;-95
2022/07/31 13:28:48;;;;;;;;;;;;;;;19.44;63.33;100347.91;5131639;23;3811;-94
2022/07/31 13:33:56;;;;;;;;;;;;;;;19.47;63.29;100356.38;4970764;28;1895;-93
2022/07/31 13:36:22;;;;;;;;;;;;;;;19.48;63.33;100352.53;4948845;29;1205;-94
2022/07/31 13:38:55;;;;;;;;;;;;;;;19.49;63.33;100348.69;4948218;29;1350;-95
2022/07/31 13:41:27;;;;;;;;;;;;;;;19.50;63.19;100341.31;4952718;29;1532;-95
2022/07/31 13:43:54;;;;;;;;;;;;;;;19.50;63.01;100344.06;5357008;23;3843;-95
2022/07/31 13:46:34;;;;;;;;;;;;;;;19.50;63.19;100350.34;4969984;28;1175;-94
2022/07/31 13:54:56;;;;;;;;;;;;;;;19.51;63.27;100351.97;4959162;29;1883;-96
2022/07/31 14:00:05;;;;;;;;;;;;;;;19.54;63.41;100339.66;5167642;23;3567;-93
2022/07/31 14:02:37;;;;;;;;;;;;;;;19.56;63.55;100361.22;4971741;28;1154;-95
2022/07/31 14:05:05;;;;;;;;;;;;;;;19.56;63.17;100353.03;4954719;29;1496;-93
2022/07/31 17:09:27;;;;;;;;;;;;;;;19.67;63.75;100291.78;4999119;28;1384;-95
2022/07/31 17:20:35;;;;;;;;;;;;;;;19.66;63.86;100266.41;5693987;23;2180;-94
2022/07/31 17:26:15;;;;;;;;;;;;;;;19.66;63.51;100260.13;5365496;23;2002;-95
2022/07/31 21:52:31;;;;;;;;;;;;;;;19.24;63.31;100138.69;4939898;29;622;-96
2022/07/31 22:01:35;;;;;;;;;;;;;;;19.22;63.22;100135.41;4933086;29;1174;-96
2022/07/31 22:04:27;;;;;;;;;;;;;;;19.21;63.35;100126.44;4936217;29;693;-95
2022/07/31 22:09:40;;;;;;;;;;;;;;;19.20;63.39;100132.97;4916388;29;1610;-96
2022/07/31 22:12:07;;;;;;;;;;;;;;;19.20;63.31;100123.97;4919235;29;1205;-94
2022/07/31 22:14:35;;;;;;;;;;;;;;;19.20;63.33;100134.88;4917430;29;2322;-96
2022/07/31 22:17:06;;;;;;;;;;;;;;;19.19;63.06;100127.81;4905160;29;1297;-95
2022/07/31 22:19:33;;;;;;;;;;;;;;;19.18;63.40;100116.09;4911084;29;1581;-94
2022/07/31 22:22:01;;;;;;;;;;;;;;;19.18;63.06;100113.34;4911078;29;1990;-93
2022/07/31 22:24:27;;;;;;;;;;;;;;;19.17;63.33;100119.91;4910101;29;1614;-94
2022/07/31 22:29:38;;;;;;;;;;;;;;;19.16;63.22;100121.00;4904605;29;1291;-93
2022/07/31 22:32:04;;;;;;;;;;;;;;;19.16;63.17;100120.19;4894620;29;1211;-94
2022/07/31 22:34:32;;;;;;;;;;;;;;;19.16;63.29;100115.53;4905564;29;1875;-95
2022/07/31 22:37:03;;;;;;;;;;;;;;;19.15;63.01;100107.63;4918646;29;1441;-94
2022/07/31 22:39:41;;;;;;;;;;;;;;;19.14;63.25;100106.00;4937405;29;929;-95
2022/07/31 22:44:51;;;;;;;;;;;;;;;19.13;62.95;100102.47;4919945;29;1246;-94
